createdAt,value
2022-12-15T00:02:10.219Z,100146.91
2022-12-15T00:04:55.311Z,100136.09
2022-12-15T00:07:40.441Z,100149.97
2022-12-15T00:10:25.390Z,100151.81
2022-12-15T00:13:10.343Z,100143.88
2022-12-15T00:15:55.506Z,100143.22
2022-12-15T00:18:40.588Z,100136.84
2022-12-15T00:21:25.591Z,100155.50
2022-12-15T00:24:10.663Z,100147.28
2022-12-15T00:26:55.662Z,100147.13
2022-12-15T00:29:40.905Z,100152.75
2022-12-15T00:32:25.899Z,100159.66
2022-12-15T00:35:10.679Z,100161.94
2022-12-15T00:37:55.799Z,100169.22
2022-12-15T00:40:22.204Z,100178.69
2022-12-15T00:42:49.695Z,100169.81
2022-12-15T00:45:16.374Z,100168.91
2022-12-15T00:47:42.793Z,100161.59
2022-12-15T00:50:27.758Z,100165.09
2022-12-15T00:53:12.865Z,100164.31
2022-12-15T00:55:57.966Z,100162.78
2022-12-15T00:58:43.002Z,100162.78
2022-12-15T01:01:29.124Z,100155.72
2022-12-15T01:04:14.303Z,100160.44
2022-12-15T01:06:59.442Z,100159.38
2022-12-15T01:09:44.465Z,100166.09
2022-12-15T01:12:29.420Z,100167.75
2022-12-15T01:15:14.278Z,100175.69
2022-12-15T01:17:59.244Z,100183.63
2022-12-15T01:20:25.650Z,100184.13
2022-12-15T01:22:54.123Z,100189.50
2022-12-15T01:25:23.010Z,100189.63
2022-12-15T01:27:49.742Z,100193.63
2022-12-15T01:30:19.819Z,100191.63
2022-12-15T01:32:46.646Z,100193.19
2022-12-15T01:35:13.396Z,100199.16
2022-12-15T01:37:39.967Z,100192.56
2022-12-15T01:40:27.004Z,100191.50
2022-12-15T01:42:53.530Z,100194.28
2022-12-15T01:45:29.130Z,100205.13
2022-12-15T01:48:10.578Z,100213.38
2022-12-15T01:50:43.806Z,100206.66
2022-12-15T01:53:10.903Z,100215.81
2022-12-15T01:55:39.093Z,100222.53
2022-12-15T01:58:07.392Z,100222.56
2022-12-15T02:00:34.584Z,100226.06
2022-12-15T02:03:01.625Z,100237.53
2022-12-15T02:05:30.044Z,100224.22
2022-12-15T02:07:56.543Z,100214.47
2022-12-15T02:10:29.449Z,100215.34
2022-12-15T02:13:12.975Z,100219.97
2022-12-15T02:15:51.250Z,100227.13
2022-12-15T02:18:46.366Z,100228.94
2022-12-15T02:21:23.954Z,100230.19
2022-12-15T02:23:56.310Z,100226.31
2022-12-15T02:26:56.557Z,100227.69
2022-12-15T02:29:50.613Z,100232.13
2022-12-15T02:32:21.438Z,100226.31
2022-12-15T02:35:06.257Z,100232.75
2022-12-15T02:37:35.321Z,100233.91
2022-12-15T02:40:02.744Z,100226.13
2022-12-15T02:42:30.633Z,100231.59
2022-12-15T02:45:01.333Z,100224.41
2022-12-15T02:48:10.000Z,100227.91
2022-12-15T02:50:51.711Z,100224.38
2022-12-15T02:53:37.063Z,100217.19
2022-12-15T02:56:26.410Z,100221.97
2022-12-15T02:59:12.461Z,100223.78
2022-12-15T03:01:47.212Z,100236.50
2022-12-15T03:04:16.772Z,100241.72
2022-12-15T03:06:43.201Z,100236.91
2022-12-15T03:09:09.664Z,100239.72
2022-12-15T03:11:36.871Z,100233.25
2022-12-15T03:14:03.769Z,100227.16
2022-12-15T03:16:30.266Z,100231.22
2022-12-15T03:18:57.723Z,100231.34
2022-12-15T03:21:24.106Z,100231.97
2022-12-15T03:23:50.482Z,100235.06
2022-12-15T03:26:16.862Z,100234.91
2022-12-15T03:28:43.257Z,100237.50
2022-12-15T03:31:09.659Z,100247.28
2022-12-15T03:33:36.055Z,100239.34
2022-12-15T03:36:02.505Z,100247.16
2022-12-15T03:38:28.931Z,100247.16
2022-12-15T03:40:55.392Z,100256.06
2022-12-15T03:43:21.795Z,100251.75
2022-12-15T03:45:48.277Z,100252.81
2022-12-15T03:48:14.768Z,100250.19
2022-12-15T03:50:41.300Z,100255.59
2022-12-15T03:53:08.024Z,100261.41
2022-12-15T03:55:35.227Z,100256.22
2022-12-15T03:58:02.659Z,100261.28
2022-12-15T04:00:29.614Z,100269.84
2022-12-15T04:02:56.212Z,100260.78
2022-12-15T04:05:30.774Z,100258.38
2022-12-15T04:07:58.609Z,100256.06
2022-12-15T04:10:31.909Z,100245.19
2022-12-15T04:13:05.785Z,100257.88
2022-12-15T04:15:32.986Z,100260.94
2022-12-15T04:18:01.354Z,100269.00
2022-12-15T04:20:27.746Z,100261.50
2022-12-15T04:22:54.235Z,100266.75
2022-12-15T04:25:40.889Z,100273.59
2022-12-15T04:28:26.971Z,100273.47
2022-12-15T04:31:14.954Z,100285.28
2022-12-15T04:34:03.642Z,100293.06
2022-12-15T04:36:49.364Z,100283.47
2022-12-15T04:39:34.422Z,100286.19
2022-12-15T04:42:19.949Z,100282.22
2022-12-15T04:45:06.510Z,100281.78
2022-12-15T04:47:51.438Z,100286.06
2022-12-15T04:50:36.585Z,100286.22
2022-12-15T04:53:29.510Z,100287.34
2022-12-15T04:56:18.496Z,100287.19
2022-12-15T04:59:03.921Z,100290.72
2022-12-15T05:01:49.120Z,100289.47
2022-12-15T05:04:34.307Z,100292.69
2022-12-15T05:07:19.313Z,100295.75
2022-12-15T05:10:06.263Z,100299.41
2022-12-15T05:12:54.582Z,100297.75
2022-12-15T05:15:39.733Z,100293.75
2022-12-15T05:18:24.737Z,100298.22
2022-12-15T05:21:09.518Z,100293.00
2022-12-15T05:23:54.731Z,100293.44
2022-12-15T05:26:39.767Z,100309.06
2022-12-15T05:29:24.796Z,100318.69
2022-12-15T05:31:54.907Z,100313.19
2022-12-15T05:34:26.600Z,100308.75
2022-12-15T05:36:53.986Z,100308.75
2022-12-15T05:39:20.815Z,100304.50
2022-12-15T05:41:47.616Z,100318.53
2022-12-15T05:44:14.262Z,100318.53
2022-12-15T05:46:41.100Z,100308.91
2022-12-15T05:49:08.825Z,100315.00
2022-12-15T05:51:38.360Z,100315.16
2022-12-15T05:54:04.926Z,100306.88
2022-12-15T05:56:31.507Z,100318.97
2022-12-15T05:58:58.250Z,100319.44
2022-12-15T06:01:28.067Z,100319.31
2022-12-15T06:03:54.606Z,100311.94
2022-12-15T06:06:21.108Z,100312.22
2022-12-15T06:08:47.565Z,100311.31
2022-12-15T06:11:18.394Z,100322.47
2022-12-15T06:13:45.213Z,100320.50
2022-12-15T06:16:20.327Z,100319.59
2022-12-15T06:18:50.781Z,100322.94
2022-12-15T06:21:23.674Z,100327.06
2022-12-15T06:23:50.482Z,100326.00
2022-12-15T06:26:22.729Z,100327.97
2022-12-15T06:28:50.163Z,100343.72
2022-12-15T06:31:18.208Z,100340.63
2022-12-15T06:33:44.820Z,100350.16
2022-12-15T06:36:13.525Z,100352.84
2022-12-15T06:38:43.366Z,100351.81
2022-12-15T06:41:12.469Z,100367.88
2022-12-15T06:43:39.074Z,100368.59
2022-12-15T06:46:05.606Z,100370.00
2022-12-15T06:48:32.109Z,100377.81
2022-12-15T06:51:09.647Z,100369.66
2022-12-15T06:53:48.571Z,100369.94
2022-12-15T06:56:33.972Z,100374.53
2022-12-15T06:59:01.936Z,100379.28
2022-12-15T07:01:29.353Z,100375.34
2022-12-15T07:03:57.090Z,100374.88
2022-12-15T07:06:23.779Z,100386.19
2022-12-15T07:08:52.664Z,100386.31
2022-12-15T07:11:20.922Z,100378.84
2022-12-15T07:13:54.529Z,100391.19
2022-12-15T07:16:22.447Z,100386.03
2022-12-15T07:18:49.175Z,100395.63
2022-12-15T07:21:15.580Z,100402.53
2022-12-15T07:23:58.221Z,100405.47
2022-12-15T07:26:25.576Z,100413.84
2022-12-15T07:28:54.112Z,100409.88
2022-12-15T07:31:21.125Z,100412.16
2022-12-15T07:33:48.470Z,100407.25
2022-12-15T07:36:15.103Z,100412.28
2022-12-15T07:38:41.578Z,100413.66
2022-12-15T07:41:08.466Z,100413.28
2022-12-15T07:43:36.154Z,100421.09
2022-12-15T07:46:04.604Z,100413.75
2022-12-15T07:48:31.907Z,100419.53
2022-12-15T07:51:07.347Z,100427.94
2022-12-15T07:53:35.998Z,100422.13
2022-12-15T07:56:08.530Z,100419.81
2022-12-15T07:58:36.574Z,100425.91
2022-12-15T08:01:05.796Z,100429.28
2022-12-15T08:03:33.257Z,100438.78
2022-12-15T08:06:07.180Z,100440.16
2022-12-15T08:08:35.359Z,100444.13
2022-12-15T08:11:06.482Z,100452.03
2022-12-15T08:16:23.340Z,100452.38
2022-12-15T08:18:49.798Z,100466.09
2022-12-15T08:21:16.259Z,100457.97
2022-12-15T08:23:42.716Z,100472.66
2022-12-15T08:26:12.618Z,100471.88
2022-12-15T08:28:40.071Z,100475.72
2022-12-15T08:31:16.427Z,100480.88
2022-12-15T08:33:43.006Z,100479.03
2022-12-15T08:36:11.415Z,100471.19
2022-12-15T08:38:39.885Z,100471.28
2022-12-15T08:41:08.553Z,100473.91
2022-12-15T08:43:35.378Z,100479.16
2022-12-15T08:46:02.026Z,100486.75
2022-12-15T08:48:28.511Z,100489.78
2022-12-15T08:50:56.172Z,100490.28
2022-12-15T08:53:31.398Z,100492.75
2022-12-15T08:56:09.037Z,100493.63
2022-12-15T08:58:35.912Z,100497.13
2022-12-15T09:01:08.018Z,100499.53
2022-12-15T09:03:36.152Z,100498.75
2022-12-15T09:06:08.969Z,100506.56
2022-12-15T09:08:36.029Z,100499.81
2022-12-15T09:11:02.965Z,100502.25
2022-12-15T09:13:36.930Z,100494.38
2022-12-15T09:16:13.330Z,100490.25
2022-12-15T09:18:42.321Z,100488.63
2022-12-15T09:21:09.378Z,100497.94
2022-12-15T09:23:36.588Z,100493.28
2022-12-15T09:26:08.171Z,100492.63
2022-12-15T09:28:35.504Z,100492.00
2022-12-15T09:31:06.534Z,100504.41
2022-12-15T09:33:33.535Z,100491.75
2022-12-15T09:36:00.414Z,100497.97
2022-12-15T09:38:26.788Z,100510.03
2022-12-15T09:40:53.401Z,100513.19
2022-12-15T09:43:44.551Z,100513.34
2022-12-15T09:46:23.451Z,100514.13
2022-12-15T09:48:51.256Z,100512.28
2022-12-15T09:51:18.765Z,100517.63
2022-12-15T09:53:54.804Z,100506.88
2022-12-15T09:56:50.028Z,100521.47
2022-12-15T09:59:20.696Z,100526.00
2022-12-15T10:02:13.878Z,100524.19
2022-12-15T10:04:53.655Z,100509.72
2022-12-15T10:07:28.264Z,100527.59
2022-12-15T10:09:54.678Z,100526.28
2022-12-15T10:12:26.522Z,100523.94
2022-12-15T10:15:22.276Z,100527.31
2022-12-15T10:18:06.367Z,100530.09
2022-12-15T10:20:33.343Z,100523.75
2022-12-15T10:23:12.946Z,100527.81
2022-12-15T10:25:40.109Z,100541.91
2022-12-15T10:28:15.585Z,100532.47
2022-12-15T10:30:56.371Z,100521.72
2022-12-15T10:33:24.215Z,100529.44
2022-12-15T10:35:55.479Z,100516.22
2022-12-15T10:38:40.442Z,100522.63
2022-12-15T10:41:12.172Z,100513.59
2022-12-15T10:43:41.166Z,100525.53
2022-12-15T10:46:22.325Z,100524.72
2022-12-15T10:48:51.415Z,100522.72
2022-12-15T10:51:31.676Z,100533.50
2022-12-15T10:54:05.338Z,100534.47
2022-12-15T10:56:34.197Z,100526.97
2022-12-15T10:59:03.789Z,100521.47
2022-12-15T11:01:33.098Z,100525.81
2022-12-15T11:03:59.953Z,100530.97
2022-12-15T11:06:29.511Z,100535.91
2022-12-15T11:08:57.576Z,100539.66
2022-12-15T11:11:54.357Z,100543.19
2022-12-15T11:14:26.078Z,100543.41
2022-12-15T11:16:57.360Z,100541.44
2022-12-15T11:19:49.129Z,100539.03
2022-12-15T11:22:23.987Z,100540.22
2022-12-15T11:24:53.648Z,100542.50
2022-12-15T11:27:46.370Z,100549.69
2022-12-15T11:30:15.268Z,100540.75
2022-12-15T11:32:44.710Z,100546.06
2022-12-15T11:35:16.508Z,100549.75
2022-12-15T11:37:56.903Z,100550.16
2022-12-15T11:40:39.741Z,100556.53
2022-12-15T11:43:43.793Z,100551.66
2022-12-15T11:46:23.125Z,100549.13
2022-12-15T11:49:09.916Z,100556.75
2022-12-15T11:52:17.684Z,100558.78
2022-12-15T11:54:50.721Z,100551.94
2022-12-15T11:57:35.727Z,100558.06
2022-12-15T12:00:21.414Z,100552.94
2022-12-15T12:02:57.092Z,100551.72
2022-12-15T12:05:45.482Z,100549.19
2022-12-15T12:08:17.843Z,100549.59
2022-12-15T12:10:57.904Z,100550.00
2022-12-15T12:13:27.278Z,100558.31
2022-12-15T12:16:04.670Z,100558.69
2022-12-15T12:18:34.790Z,100558.44
2022-12-15T12:21:19.845Z,100560.06
2022-12-15T12:24:09.519Z,100559.63
2022-12-15T12:26:42.062Z,100553.66
2022-12-15T12:29:08.392Z,100563.38
2022-12-15T12:31:50.721Z,100560.41
2022-12-15T12:35:30.981Z,100561.34
2022-12-15T12:37:58.125Z,100561.94
2022-12-15T12:40:41.873Z,100556.19
2022-12-15T12:43:14.011Z,100558.94
2022-12-15T12:45:47.711Z,100556.69
2022-12-15T12:48:37.825Z,100556.50
2022-12-15T12:51:20.439Z,100562.44
2022-12-15T12:53:46.984Z,100561.88
2022-12-15T12:56:40.302Z,100560.41
2022-12-15T12:59:28.641Z,100561.59
2022-12-15T13:01:56.469Z,100561.22
2022-12-15T13:04:28.901Z,100565.41
2022-12-15T13:06:59.259Z,100563.59
2022-12-15T13:09:40.727Z,100559.84
2022-12-15T13:12:50.858Z,100551.56
2022-12-15T13:15:35.755Z,100550.06
2022-12-15T13:18:06.664Z,100550.00
2022-12-15T13:20:35.511Z,100551.81
2022-12-15T13:23:22.142Z,100542.53
2022-12-15T13:25:57.871Z,100549.00
2022-12-15T13:28:40.488Z,100536.22
2022-12-15T13:31:16.734Z,100539.59
2022-12-15T13:34:11.291Z,100537.06
2022-12-15T13:36:37.836Z,100530.56
2022-12-15T13:39:27.249Z,100533.22
2022-12-15T13:44:55.198Z,100525.69
2022-12-15T13:47:27.524Z,100539.66
2022-12-15T13:50:06.859Z,100544.16
2022-12-15T13:55:38.047Z,100549.00
2022-12-15T13:58:15.937Z,100545.97
2022-12-15T14:00:52.262Z,100554.56
2022-12-15T14:03:18.803Z,100556.31
2022-12-15T14:06:11.892Z,100557.41
2022-12-15T14:08:38.286Z,100548.25
2022-12-15T14:11:22.331Z,100545.84
2022-12-15T14:13:54.365Z,100539.09
2022-12-15T14:16:22.330Z,100542.81
2022-12-15T14:19:12.928Z,100545.31
2022-12-15T14:21:39.540Z,100541.25
2022-12-15T14:24:39.524Z,100541.25
2022-12-15T14:27:06.946Z,100549.44
2022-12-15T14:29:33.419Z,100544.31
2022-12-15T14:32:00.565Z,100546.06
2022-12-15T14:34:32.459Z,100546.00
2022-12-15T14:37:02.428Z,100542.97
2022-12-15T14:39:43.160Z,100539.28
2022-12-15T14:42:16.548Z,100539.72
2022-12-15T14:44:49.927Z,100541.78
2022-12-15T14:47:27.317Z,100545.25
2022-12-15T14:49:55.409Z,100544.22
2022-12-15T14:52:39.369Z,100534.75
2022-12-15T14:55:21.019Z,100538.59
2022-12-15T14:57:48.230Z,100541.22
2022-12-15T15:00:24.114Z,100552.56
2022-12-15T15:02:50.612Z,100545.66
2022-12-15T15:03:10.416Z,100536.66
2022-12-15T15:05:27.755Z,100550.06
2022-12-15T15:07:56.174Z,100543.56
2022-12-15T15:10:25.097Z,100544.94
2022-12-15T15:12:52.558Z,100551.56
2022-12-15T15:15:21.269Z,100550.38
2022-12-15T15:17:47.613Z,100550.44
2022-12-15T15:20:29.914Z,100552.47
2022-12-15T15:23:08.582Z,100558.97
2022-12-15T15:25:41.692Z,100555.09
2022-12-15T15:28:14.404Z,100554.56
2022-12-15T15:30:51.044Z,100551.88
2022-12-15T15:33:23.066Z,100554.69
2022-12-15T15:35:52.968Z,100557.75
2022-12-15T15:38:26.965Z,100557.66
2022-12-15T15:40:59.013Z,100555.97
2022-12-15T15:43:27.252Z,100556.03
2022-12-15T15:46:05.605Z,100546.16
2022-12-15T15:48:35.403Z,100544.69
2022-12-15T15:51:02.776Z,100550.78
2022-12-15T15:53:32.355Z,100543.84
2022-12-15T15:55:59.213Z,100546.91
2022-12-15T15:58:25.849Z,100541.47
2022-12-15T16:00:53.425Z,100541.31
2022-12-15T16:03:20.109Z,100544.41
2022-12-15T16:05:46.765Z,100539.41
2022-12-15T16:08:16.348Z,100554.28
2022-12-15T16:10:48.040Z,100537.72
2022-12-15T16:13:25.563Z,100540.53
2022-12-15T16:15:52.940Z,100548.63
2022-12-15T16:18:20.026Z,100544.38
2022-12-15T16:20:48.965Z,100555.50
2022-12-15T16:23:17.766Z,100550.28
2022-12-15T16:25:50.741Z,100547.16
2022-12-15T16:28:22.543Z,100553.03
2022-12-15T16:30:49.465Z,100552.44
2022-12-15T16:33:16.534Z,100546.66
2022-12-15T16:35:43.990Z,100548.75
2022-12-15T16:38:30.815Z,100539.09
2022-12-15T16:41:05.139Z,100553.19
2022-12-15T16:43:37.259Z,100550.38
2022-12-15T16:46:06.122Z,100563.56
2022-12-15T16:48:33.151Z,100568.06
2022-12-15T16:51:00.183Z,100569.03
2022-12-15T16:53:29.979Z,100566.72
2022-12-15T16:55:58.119Z,100565.03
2022-12-15T16:58:26.011Z,100567.75
2022-12-15T17:00:53.814Z,100570.56
2022-12-15T17:03:26.084Z,100570.88
2022-12-15T17:05:54.920Z,100565.31
2022-12-15T17:08:24.885Z,100564.78
2022-12-15T17:10:51.625Z,100564.78
2022-12-15T17:13:41.959Z,100565.66
2022-12-15T17:16:14.176Z,100564.91
2022-12-15T17:18:42.605Z,100565.19
2022-12-15T17:21:13.929Z,100566.84
2022-12-15T17:23:41.089Z,100567.31
2022-12-15T17:26:25.673Z,100577.66
2022-12-15T17:28:55.644Z,100574.16
2022-12-15T17:31:24.010Z,100575.91
2022-12-15T17:33:50.696Z,100576.91
2022-12-15T17:36:20.763Z,100578.94
2022-12-15T17:38:49.630Z,100582.88
2022-12-15T17:41:42.402Z,100573.72
2022-12-15T17:44:31.838Z,100567.38
2022-12-15T17:46:49.526Z,100569.38
2022-12-15T17:49:16.248Z,100582.66
2022-12-15T17:51:43.973Z,100584.97
2022-12-15T17:54:15.166Z,100581.34
2022-12-15T17:56:42.991Z,100589.22
2022-12-15T17:59:14.286Z,100591.50
2022-12-15T18:01:42.869Z,100586.16
2022-12-15T18:04:10.389Z,100596.81
2022-12-15T18:06:41.032Z,100587.88
2022-12-15T18:09:15.852Z,100587.22
2022-12-15T18:11:45.085Z,100586.91
2022-12-15T18:14:17.833Z,100593.34
2022-12-15T18:16:47.880Z,100593.03
2022-12-15T18:19:14.527Z,100593.44
2022-12-15T18:21:41.116Z,100599.97
2022-12-15T18:24:15.437Z,100603.81
2022-12-15T18:26:42.150Z,100605.56
2022-12-15T18:29:14.185Z,100607.28
2022-12-15T18:31:41.617Z,100603.47
2022-12-15T18:34:17.357Z,100609.97
2022-12-15T18:36:44.096Z,100619.53
2022-12-15T18:39:17.372Z,100614.91
2022-12-15T18:41:43.925Z,100611.88
2022-12-15T18:44:24.232Z,100618.63
2022-12-15T18:46:51.000Z,100624.28
2022-12-15T18:49:19.319Z,100628.88
2022-12-15T18:51:47.151Z,100635.34
2022-12-15T18:54:22.017Z,100641.91
2022-12-15T18:56:49.055Z,100647.63
2022-12-15T18:59:17.063Z,100640.06
2022-12-15T19:01:45.496Z,100641.06
2022-12-15T19:04:12.561Z,100636.59
2022-12-15T19:06:40.411Z,100644.88
2022-12-15T19:09:13.826Z,100651.84
2022-12-15T19:11:40.448Z,100657.25
2022-12-15T19:14:33.202Z,100653.69
2022-12-15T19:17:18.446Z,100660.56
2022-12-15T19:20:03.593Z,100663.84
2022-12-15T19:22:31.170Z,100657.41
2022-12-15T19:24:58.698Z,100670.50
2022-12-15T19:27:26.506Z,100671.81
2022-12-15T19:29:54.294Z,100675.06
2022-12-15T19:32:21.068Z,100682.69
2022-12-15T19:34:47.519Z,100686.13
2022-12-15T19:37:21.785Z,100702.34
2022-12-15T19:39:48.527Z,100694.56
2022-12-15T19:42:19.845Z,100701.56
2022-12-15T19:44:46.428Z,100698.75
2022-12-15T19:47:13.649Z,100690.72
2022-12-15T19:49:41.309Z,100692.44
2022-12-15T19:52:15.252Z,100704.53
2022-12-15T19:54:43.282Z,100690.31
2022-12-15T19:57:15.387Z,100697.91
2022-12-15T19:59:41.829Z,100687.00
2022-12-15T20:02:21.559Z,100693.19
2022-12-15T20:04:48.651Z,100693.06
2022-12-15T20:07:18.759Z,100705.69
2022-12-15T20:09:46.487Z,100712.66
2022-12-15T20:12:17.879Z,100715.50
2022-12-15T20:14:45.088Z,100716.84
2022-12-15T20:17:11.539Z,100716.84
2022-12-15T20:19:40.808Z,100723.63
2022-12-15T20:22:13.404Z,100714.78
2022-12-15T20:24:40.203Z,100718.91
2022-12-15T20:27:12.825Z,100712.59
2022-12-15T20:29:39.516Z,100716.09
2022-12-15T20:32:13.550Z,100712.63
2022-12-15T20:34:40.259Z,100711.88
2022-12-15T20:37:20.591Z,100713.66
2022-12-15T20:39:48.692Z,100717.78
2022-12-15T20:42:19.591Z,100714.44
2022-12-15T20:44:46.012Z,100711.28
2022-12-15T20:47:21.953Z,100708.91
2022-12-15T20:49:51.972Z,100710.22
2022-12-15T20:52:23.659Z,100708.84
2022-12-15T20:54:51.214Z,100700.88
2022-12-15T20:57:17.761Z,100697.69
2022-12-15T20:59:44.718Z,100710.88
2022-12-15T21:02:19.484Z,100706.13
2022-12-15T21:04:46.062Z,100710.34
2022-12-15T21:07:12.662Z,100709.91
2022-12-15T21:09:39.303Z,100703.91
2022-12-15T21:12:26.425Z,100701.13
2022-12-15T21:14:53.711Z,100701.22
2022-12-15T21:17:25.934Z,100704.81
2022-12-15T21:19:52.703Z,100701.84
2022-12-15T21:22:26.354Z,100707.66
2022-12-15T21:24:58.229Z,100704.78
2022-12-15T21:27:25.089Z,100710.09
2022-12-15T21:29:52.952Z,100707.22
2022-12-15T21:32:20.125Z,100700.84
2022-12-15T21:34:46.638Z,100695.00
2022-12-15T21:37:43.297Z,100708.50
2022-12-15T21:40:16.920Z,100711.34
2022-12-15T21:42:43.336Z,100699.94
2022-12-15T21:45:17.490Z,100701.06
2022-12-15T21:48:02.500Z,100698.31
2022-12-15T21:50:29.052Z,100712.63
2022-12-15T21:52:55.630Z,100705.63
2022-12-15T21:55:24.558Z,100711.72
2022-12-15T21:57:51.662Z,100703.31
2022-12-15T22:00:19.316Z,100712.34
2022-12-15T22:02:47.684Z,100704.69
2022-12-15T22:05:25.042Z,100707.63
2022-12-15T22:07:51.677Z,100698.09
2022-12-15T22:10:18.362Z,100704.06
2022-12-15T22:12:48.657Z,100709.13
2022-12-15T22:15:18.308Z,100731.09
2022-12-15T22:17:44.991Z,100729.34
2022-12-15T22:20:16.392Z,100731.72
2022-12-15T22:22:42.792Z,100729.28
2022-12-15T22:25:15.988Z,100738.34
2022-12-15T22:27:42.672Z,100733.34
2022-12-15T22:30:21.653Z,100736.34
2022-12-15T22:32:48.223Z,100742.66
2022-12-15T22:35:20.144Z,100751.34
2022-12-15T22:37:47.246Z,100745.66
2022-12-15T22:40:14.396Z,100749.59
2022-12-15T22:42:46.560Z,100757.00
2022-12-15T22:45:16.338Z,100761.66
2022-12-15T22:47:43.409Z,100762.31
2022-12-15T22:50:21.046Z,100768.03
2022-12-15T22:52:47.876Z,100760.56
2022-12-15T22:55:18.998Z,100767.78
2022-12-15T22:57:56.170Z,100763.94
2022-12-15T23:00:22.620Z,100768.25
2022-12-15T23:02:49.098Z,100758.88
2022-12-15T23:05:17.615Z,100755.09
2022-12-15T23:07:44.516Z,100761.69
2022-12-15T23:10:32.164Z,100766.16
2022-12-15T23:13:01.158Z,100774.59
2022-12-15T23:15:46.987Z,100775.41
2022-12-15T23:18:14.323Z,100783.38
2022-12-15T23:20:41.346Z,100776.38
2022-12-15T23:23:09.498Z,100786.81
2022-12-15T23:25:36.028Z,100786.50
2022-12-15T23:28:03.103Z,100788.41
2022-12-15T23:30:29.697Z,100790.69
2022-12-15T23:32:56.099Z,100779.28
2022-12-15T23:35:22.585Z,100781.09
2022-12-15T23:37:49.028Z,100784.56
2022-12-15T23:40:21.172Z,100777.50
2022-12-15T23:42:48.530Z,100783.44
2022-12-15T23:45:15.273Z,100777.06
2022-12-15T23:47:41.715Z,100787.31
2022-12-15T23:50:08.678Z,100787.63
2022-12-15T23:52:35.231Z,100798.78
2022-12-15T23:55:02.051Z,100798.00
2022-12-15T23:57:28.619Z,100793.78
2022-12-15T23:59:55.056Z,100795.88
